createdAt,value
2023-05-07T00:00:26.775Z,13.37
2023-05-07T00:01:59.881Z,13.20
2023-05-07T00:03:33.416Z,14.20
2023-05-07T00:05:07.740Z,14.30
2023-05-07T00:06:41.126Z,14.20
2023-05-07T00:08:16.101Z,13.57
2023-05-07T00:09:49.183Z,13.07
2023-05-07T00:11:22.452Z,13.40
2023-05-07T00:12:54.632Z,13.43
2023-05-07T00:14:27.838Z,14.43
2023-05-07T00:16:00.945Z,14.20
2023-05-07T00:17:34.759Z,14.47
2023-05-07T00:19:07.878Z,14.70
2023-05-07T00:20:40.999Z,14.70
2023-05-07T00:22:13.149Z,13.37
2023-05-07T00:23:47.565Z,15.30
2023-05-07T00:25:21.446Z,15.50
2023-05-07T00:26:54.565Z,15.03
2023-05-07T00:28:26.663Z,15.73
2023-05-07T00:29:59.746Z,15.13
2023-05-07T00:31:31.899Z,15.30
2023-05-07T00:33:05.122Z,14.60
2023-05-07T00:34:38.250Z,15.07
2023-05-07T00:36:11.344Z,13.67
2023-05-07T00:37:44.414Z,14.27
2023-05-07T00:39:18.989Z,14.10
2023-05-07T00:40:52.626Z,14.77
2023-05-07T00:42:25.075Z,14.17
2023-05-07T00:43:58.206Z,14.80
2023-05-07T00:45:31.762Z,15.33
2023-05-07T00:47:06.919Z,15.17
2023-05-07T00:48:40.095Z,16.20
2023-05-07T00:50:13.799Z,15.33
2023-05-07T00:51:47.909Z,16.00
2023-05-07T00:53:21.260Z,15.63
2023-05-07T00:54:56.653Z,16.47
2023-05-07T00:56:30.153Z,14.90
2023-05-07T00:58:03.285Z,15.50
2023-05-07T00:59:35.935Z,16.70
2023-05-07T01:01:09.488Z,16.63
2023-05-07T01:02:42.968Z,17.87
2023-05-07T01:04:15.784Z,18.73
2023-05-07T01:05:51.421Z,19.17
2023-05-07T01:07:25.598Z,17.53
2023-05-07T01:08:59.118Z,17.43
2023-05-07T01:10:33.741Z,18.10
2023-05-07T01:12:08.584Z,17.57
2023-05-07T01:13:42.558Z,17.37
2023-05-07T01:15:15.192Z,17.23
2023-05-07T01:16:49.317Z,17.30
2023-05-07T01:18:22.830Z,18.10
2023-05-07T01:19:56.241Z,17.60
2023-05-07T01:21:32.138Z,17.63
2023-05-07T01:23:09.160Z,18.17
2023-05-07T01:24:43.442Z,18.87
2023-05-07T01:26:17.246Z,18.47
2023-05-07T01:27:51.254Z,18.40
2023-05-07T01:29:25.523Z,18.73
2023-05-07T01:31:04.521Z,18.43
2023-05-07T01:32:41.256Z,18.67
2023-05-07T01:34:17.595Z,18.83
2023-05-07T01:35:54.875Z,18.17
2023-05-07T01:37:27.562Z,19.23
2023-05-07T01:39:02.577Z,18.33
2023-05-07T01:40:36.404Z,19.33
2023-05-07T01:42:08.812Z,19.30
2023-05-07T01:43:43.316Z,18.47
2023-05-07T01:45:15.787Z,18.27
2023-05-07T01:46:50.388Z,19.20
2023-05-07T01:48:22.702Z,20.57
2023-05-07T01:49:56.559Z,20.50
2023-05-07T01:51:29.826Z,19.73
2023-05-07T01:53:03.934Z,19.33
2023-05-07T01:54:37.399Z,20.27
2023-05-07T01:56:10.668Z,20.40
2023-05-07T01:57:46.085Z,20.00
2023-05-07T01:59:18.324Z,21.37
2023-05-07T02:00:51.554Z,20.50
2023-05-07T02:02:24.794Z,20.07
2023-05-07T02:03:58.841Z,19.87
2023-05-07T02:05:33.181Z,20.10
2023-05-07T02:07:11.511Z,20.30
2023-05-07T02:08:45.139Z,20.57
2023-05-07T02:10:20.163Z,19.87
2023-05-07T02:11:53.315Z,20.17
2023-05-07T02:13:28.120Z,20.07
2023-05-07T02:15:01.215Z,19.77
2023-05-07T02:16:34.552Z,20.23
2023-05-07T02:18:10.048Z,20.80
2023-05-07T02:19:43.425Z,21.77
2023-05-07T02:21:16.553Z,20.13
2023-05-07T02:22:49.656Z,20.40
2023-05-07T02:24:22.857Z,20.37
2023-05-07T02:25:56.287Z,21.17
2023-05-07T02:27:29.377Z,20.80
2023-05-07T02:29:01.453Z,20.53
2023-05-07T02:30:34.661Z,20.07
2023-05-07T02:32:08.504Z,21.03
2023-05-07T02:33:41.723Z,21.07
2023-05-07T02:35:16.257Z,20.73
2023-05-07T02:36:49.503Z,20.47
2023-05-07T02:38:25.244Z,20.27
2023-05-07T02:39:58.375Z,19.83
2023-05-07T02:41:32.971Z,20.17
2023-05-07T02:43:06.160Z,19.87
2023-05-07T02:44:39.469Z,19.57
2023-05-07T02:46:12.089Z,19.47
2023-05-07T02:47:49.246Z,21.33
2023-05-07T02:49:22.368Z,19.53
2023-05-07T02:50:54.546Z,20.80
2023-05-07T02:52:27.625Z,18.87
2023-05-07T02:54:01.874Z,18.07
2023-05-07T02:55:35.988Z,17.93
2023-05-07T02:57:10.491Z,17.27
2023-05-07T02:58:43.952Z,17.30
2023-05-07T03:00:19.720Z,17.60
2023-05-07T03:02:08.460Z,17.77
2023-05-07T03:03:41.909Z,17.80
2023-05-07T03:05:15.376Z,17.50
2023-05-07T03:06:48.475Z,16.90
2023-05-07T03:08:21.597Z,16.27
2023-05-07T03:09:54.689Z,15.07
2023-05-07T03:11:27.944Z,13.83
2023-05-07T03:13:03.231Z,13.70
2023-05-07T03:14:36.321Z,13.73
2023-05-07T03:16:09.513Z,11.90
2023-05-07T03:17:41.778Z,11.60
2023-05-07T03:19:14.910Z,10.33
2023-05-07T03:20:48.538Z,9.83
2023-05-07T03:22:22.939Z,10.40
2023-05-07T03:23:56.043Z,9.80
2023-05-07T03:25:28.424Z,9.87
2023-05-07T03:27:02.095Z,9.83
2023-05-07T03:28:36.210Z,10.50
2023-05-07T03:30:13.762Z,10.03
2023-05-07T03:31:47.217Z,9.80
2023-05-07T03:33:19.441Z,10.47
2023-05-07T03:34:53.320Z,9.63
2023-05-07T03:36:27.663Z,10.30
2023-05-07T03:38:01.695Z,10.33
2023-05-07T03:39:36.783Z,9.93
2023-05-07T03:41:10.529Z,10.27
2023-05-07T03:42:43.685Z,9.97
2023-05-07T03:44:19.208Z,10.83
2023-05-07T03:45:52.749Z,10.43
2023-05-07T03:47:29.190Z,10.63
2023-05-07T03:49:02.832Z,11.33
2023-05-07T03:50:36.591Z,12.83
2023-05-07T03:52:09.993Z,13.03
2023-05-07T03:53:43.060Z,14.07
2023-05-07T03:55:16.105Z,13.50
2023-05-07T03:56:54.086Z,13.73
2023-05-07T03:58:27.708Z,14.43
2023-05-07T04:00:07.549Z,14.83
2023-05-07T04:01:53.654Z,14.47
2023-05-07T04:03:29.625Z,15.43
2023-05-07T04:05:06.059Z,15.20
2023-05-07T04:06:39.264Z,15.50
2023-05-07T04:08:12.430Z,16.47
2023-05-07T04:09:48.364Z,16.07
2023-05-07T04:11:21.478Z,16.10
2023-05-07T04:12:53.719Z,16.03
2023-05-07T04:14:28.966Z,16.13
2023-05-07T04:16:03.723Z,16.57
2023-05-07T04:17:36.905Z,15.73
2023-05-07T04:19:10.023Z,15.97
2023-05-07T04:20:44.198Z,16.37
2023-05-07T04:22:19.758Z,16.07
2023-05-07T04:23:52.940Z,16.10
2023-05-07T04:25:27.386Z,17.17
2023-05-07T04:27:05.434Z,15.97
2023-05-07T04:28:37.673Z,17.33
2023-05-07T04:30:11.856Z,17.20
2023-05-07T04:31:47.348Z,17.00
2023-05-07T04:33:21.235Z,16.70
2023-05-07T04:34:56.281Z,17.57
2023-05-07T04:36:30.114Z,18.30
2023-05-07T04:38:06.672Z,17.83
2023-05-07T04:39:39.820Z,17.03
2023-05-07T04:41:16.096Z,17.13
2023-05-07T04:42:49.742Z,16.73
2023-05-07T04:44:23.558Z,16.47
2023-05-07T04:45:55.761Z,16.13
2023-05-07T04:47:32.978Z,16.40
2023-05-07T04:49:07.772Z,14.77
2023-05-07T04:50:41.753Z,14.97
2023-05-07T04:52:16.240Z,14.33
2023-05-07T04:53:49.563Z,15.37
2023-05-07T04:55:23.090Z,14.80
2023-05-07T04:56:56.329Z,14.70
2023-05-07T04:58:28.607Z,15.17
2023-05-07T05:00:01.719Z,15.13
2023-05-07T05:01:37.464Z,14.83
2023-05-07T05:03:14.099Z,14.30
2023-05-07T05:04:47.386Z,15.30
2023-05-07T05:06:20.958Z,14.60
2023-05-07T05:07:53.079Z,15.43
2023-05-07T05:09:26.781Z,15.70
2023-05-07T05:10:59.870Z,15.90
2023-05-07T05:12:33.274Z,15.37
2023-05-07T05:14:07.468Z,14.40
2023-05-07T05:15:39.769Z,15.03
2023-05-07T05:17:13.139Z,14.30
2023-05-07T05:18:48.155Z,13.40
2023-05-07T05:20:24.101Z,13.40
2023-05-07T05:21:57.212Z,13.60
2023-05-07T05:23:30.539Z,13.10
2023-05-07T05:25:03.658Z,12.97
2023-05-07T05:26:36.923Z,12.47
2023-05-07T05:28:10.255Z,12.27
2023-05-07T05:29:43.589Z,11.90
2023-05-07T05:31:16.960Z,12.37
2023-05-07T05:32:50.181Z,12.27
2023-05-07T05:34:24.735Z,12.57
2023-05-07T05:35:57.822Z,11.67
2023-05-07T05:37:31.217Z,12.87
2023-05-07T05:39:06.944Z,14.20
2023-05-07T05:40:40.249Z,12.03
2023-05-07T05:42:12.478Z,11.73
2023-05-07T05:43:46.139Z,11.83
2023-05-07T05:45:19.312Z,9.57
2023-05-07T05:46:52.960Z,9.80
2023-05-07T05:48:26.359Z,10.03
2023-05-07T05:50:00.972Z,10.27
2023-05-07T05:51:34.191Z,10.07
2023-05-07T05:53:07.517Z,10.23
2023-05-07T05:54:40.686Z,10.73
2023-05-07T05:56:14.026Z,10.47
2023-05-07T05:57:48.643Z,10.20
2023-05-07T05:59:22.463Z,11.43
2023-05-07T06:00:55.908Z,11.53
2023-05-07T06:02:31.671Z,10.87
2023-05-07T06:04:05.962Z,11.20
2023-05-07T06:05:39.452Z,10.93
2023-05-07T06:07:12.592Z,10.47
2023-05-07T06:08:45.747Z,10.23
2023-05-07T06:10:22.801Z,10.10
2023-05-07T06:11:57.153Z,10.00
2023-05-07T06:13:31.213Z,9.93
2023-05-07T06:15:04.689Z,9.57
2023-05-07T06:16:39.131Z,9.60
2023-05-07T06:18:13.839Z,9.73
2023-05-07T06:19:47.809Z,8.43
2023-05-07T06:21:24.496Z,7.93
2023-05-07T06:22:57.616Z,7.53
2023-05-07T06:24:30.964Z,7.50
2023-05-07T06:26:03.267Z,7.40
2023-05-07T06:27:41.823Z,6.60
2023-05-07T06:29:15.244Z,9.33
2023-05-07T06:30:50.867Z,8.77
2023-05-07T06:32:24.897Z,18.40
2023-05-07T06:33:58.799Z,7.67
2023-05-07T06:35:38.059Z,7.17
2023-05-07T06:37:12.515Z,7.23
2023-05-07T06:38:58.202Z,6.73
2023-05-07T06:40:30.481Z,6.47
2023-05-07T06:42:06.883Z,6.37
2023-05-07T06:43:40.430Z,7.53
2023-05-07T06:45:39.670Z,7.63
2023-05-07T06:47:16.394Z,6.60
2023-05-07T06:48:53.191Z,7.13
2023-05-07T06:50:26.639Z,7.60
2023-05-07T06:52:03.383Z,7.33
2023-05-07T06:53:38.169Z,7.37
2023-05-07T06:55:12.182Z,7.17
2023-05-07T06:56:45.560Z,7.80
2023-05-07T06:58:18.709Z,7.40
2023-05-07T06:59:51.809Z,7.47
2023-05-07T07:01:25.481Z,8.20
2023-05-07T07:03:00.341Z,7.37
2023-05-07T07:04:34.884Z,6.90
2023-05-07T07:06:12.273Z,7.00
2023-05-07T07:07:45.325Z,7.23
2023-05-07T07:09:21.122Z,7.33
2023-05-07T07:10:55.982Z,8.33
2023-05-07T07:12:29.947Z,8.10
2023-05-07T07:14:03.132Z,8.13
2023-05-07T07:15:39.090Z,8.20
2023-05-07T07:17:12.160Z,8.23
2023-05-07T07:18:44.282Z,8.60
2023-05-07T07:20:17.602Z,8.50
2023-05-07T07:21:51.895Z,8.33
2023-05-07T07:23:26.032Z,7.80
2023-05-07T07:25:00.659Z,7.73
2023-05-07T07:26:33.967Z,7.70
2023-05-07T07:28:07.597Z,7.50
2023-05-07T07:29:41.257Z,7.50
2023-05-07T07:31:14.636Z,7.43
2023-05-07T07:32:47.965Z,7.60
2023-05-07T07:34:21.869Z,7.87
2023-05-07T07:35:57.674Z,7.60
2023-05-07T07:37:31.055Z,7.70
2023-05-07T07:39:04.548Z,6.70
2023-05-07T07:40:39.062Z,6.83
2023-05-07T07:42:12.901Z,6.50
2023-05-07T07:43:49.643Z,6.57
2023-05-07T07:45:24.878Z,6.33
2023-05-07T07:46:58.888Z,23.77
2023-05-07T07:48:33.465Z,6.67
2023-05-07T07:50:07.954Z,7.43
2023-05-07T07:51:41.076Z,5.30
2023-05-07T07:53:14.187Z,5.50
2023-05-07T07:54:47.391Z,5.13
2023-05-07T07:56:22.251Z,4.90
2023-05-07T07:57:55.523Z,5.27
2023-05-07T07:59:29.348Z,5.07
2023-05-07T08:01:02.452Z,4.80
2023-05-07T08:02:35.978Z,5.27
2023-05-07T08:04:09.305Z,4.60
2023-05-07T08:05:45.868Z,4.80
2023-05-07T08:07:21.620Z,5.13
2023-05-07T08:08:55.506Z,4.37
2023-05-07T08:10:29.509Z,4.90
2023-05-07T08:12:11.297Z,4.50
2023-05-07T08:13:46.023Z,4.93
2023-05-07T08:15:19.855Z,4.70
2023-05-07T08:16:53.570Z,4.67
2023-05-07T08:18:29.415Z,4.90
2023-05-07T08:20:03.983Z,4.90
2023-05-07T08:21:37.263Z,4.90
2023-05-07T08:23:10.460Z,4.87
2023-05-07T08:24:46.082Z,4.90
2023-05-07T08:26:18.834Z,4.30
2023-05-07T08:27:53.693Z,4.70
2023-05-07T08:29:26.767Z,4.63
2023-05-07T08:31:01.625Z,4.60
2023-05-07T08:32:37.800Z,4.90
2023-05-07T08:34:11.243Z,4.80
2023-05-07T08:35:48.207Z,4.80
2023-05-07T08:37:22.765Z,4.87
2023-05-07T08:38:56.116Z,4.67
2023-05-07T08:40:29.586Z,5.00
2023-05-07T08:42:06.757Z,4.77
2023-05-07T08:43:43.961Z,5.20
2023-05-07T08:45:18.479Z,6.20
2023-05-07T08:46:55.148Z,5.23
2023-05-07T08:48:31.417Z,5.60
2023-05-07T08:50:13.049Z,11.37
2023-05-07T08:51:46.665Z,5.87
2023-05-07T08:53:21.615Z,5.43
2023-05-07T08:54:55.934Z,5.60
2023-05-07T08:56:30.937Z,5.50
2023-05-07T08:58:04.090Z,5.67
2023-05-07T08:59:39.902Z,5.50
2023-05-07T09:01:15.960Z,5.33
2023-05-07T09:02:51.127Z,5.67
2023-05-07T09:04:24.296Z,5.00
2023-05-07T09:05:57.421Z,5.63
2023-05-07T09:07:33.132Z,6.03
2023-05-07T09:09:06.726Z,5.87
2023-05-07T09:10:40.617Z,6.27
2023-05-07T09:12:14.412Z,5.90
2023-05-07T09:13:48.019Z,6.70
2023-05-07T09:15:23.114Z,6.30
2023-05-07T09:16:56.309Z,5.93
2023-05-07T09:18:29.430Z,5.80
2023-05-07T09:20:06.167Z,5.50
2023-05-07T09:21:40.833Z,5.33
2023-05-07T09:23:15.508Z,6.20
2023-05-07T09:24:50.953Z,5.47
2023-05-07T09:26:29.098Z,5.57
2023-05-07T09:28:02.872Z,5.20
2023-05-07T09:29:36.491Z,5.93
2023-05-07T09:31:13.624Z,6.60
2023-05-07T09:32:47.023Z,6.40
2023-05-07T09:34:27.550Z,6.80
2023-05-07T09:36:06.073Z,6.63
2023-05-07T09:37:39.777Z,6.80
2023-05-07T09:39:14.097Z,6.77
2023-05-07T09:40:47.299Z,6.30
2023-05-07T09:42:26.538Z,6.10
2023-05-07T09:44:01.350Z,6.37
2023-05-07T09:45:40.497Z,6.23
2023-05-07T09:47:21.054Z,6.17
2023-05-07T09:49:00.119Z,6.60
2023-05-07T09:50:38.276Z,6.17
2023-05-07T09:52:12.182Z,5.53
2023-05-07T09:53:52.555Z,6.40
2023-05-07T09:55:26.114Z,5.90
2023-05-07T09:57:00.027Z,5.87
2023-05-07T09:58:38.897Z,5.53
2023-05-07T10:00:14.020Z,5.13
2023-05-07T10:01:59.088Z,5.83
2023-05-07T10:03:35.850Z,5.67
2023-05-07T10:05:12.025Z,5.83
2023-05-07T10:06:46.711Z,5.80
2023-05-07T10:08:20.978Z,5.93
2023-05-07T10:09:56.719Z,5.63
2023-05-07T10:11:37.863Z,5.60
2023-05-07T10:13:12.488Z,6.10
2023-05-07T10:14:50.708Z,5.20
2023-05-07T10:16:25.503Z,5.40
2023-05-07T10:17:59.159Z,5.83
2023-05-07T10:19:37.566Z,5.73
2023-05-07T10:21:15.318Z,5.13
2023-05-07T10:22:51.989Z,5.83
2023-05-07T10:24:34.999Z,5.37
2023-05-07T10:26:11.433Z,5.80
2023-05-07T10:27:46.735Z,6.03
2023-05-07T10:29:36.059Z,5.80
2023-05-07T10:31:25.722Z,6.37
2023-05-07T10:33:06.830Z,6.03
2023-05-07T10:34:46.434Z,5.90
2023-05-07T10:36:20.574Z,5.67
2023-05-07T10:37:54.367Z,6.07
2023-05-07T10:39:29.453Z,6.40
2023-05-07T10:41:05.645Z,6.13
2023-05-07T10:42:41.327Z,6.97
2023-05-07T10:44:26.612Z,6.33
2023-05-07T10:46:13.208Z,6.27
2023-05-07T10:48:27.307Z,6.53
2023-05-07T10:50:26.075Z,6.37
2023-05-07T10:52:15.714Z,7.10
2023-05-07T10:54:23.208Z,6.23
2023-05-07T10:56:30.041Z,6.60
2023-05-07T11:00:45.605Z,6.63
2023-05-07T11:03:06.278Z,6.73
2023-05-07T11:04:45.838Z,6.63
2023-05-07T11:06:35.573Z,6.53
2023-05-07T11:08:14.102Z,6.30
2023-05-07T11:10:05.600Z,6.60
2023-05-07T11:12:08.124Z,6.37
2023-05-07T11:13:56.910Z,6.83
2023-05-07T11:15:54.766Z,6.30
2023-05-07T11:17:56.626Z,6.23
2023-05-07T11:19:50.593Z,6.67
2023-05-07T11:21:38.733Z,6.10
2023-05-07T11:24:12.202Z,5.80
2023-05-07T11:26:01.413Z,5.87
2023-05-07T11:27:35.504Z,6.47
2023-05-07T11:29:13.134Z,6.47
2023-05-07T11:30:48.279Z,5.93
2023-05-07T11:32:25.550Z,6.20
2023-05-07T11:34:00.644Z,6.40
2023-05-07T11:35:37.040Z,6.00
2023-05-07T11:37:18.680Z,5.87
2023-05-07T11:38:57.931Z,6.07
2023-05-07T11:40:31.522Z,5.83
2023-05-07T11:42:05.054Z,5.90
2023-05-07T11:43:37.501Z,5.73
2023-05-07T11:45:12.161Z,6.70
2023-05-07T11:46:46.217Z,5.60
2023-05-07T11:48:19.581Z,6.40
2023-05-07T11:49:54.751Z,5.90
2023-05-07T11:51:28.267Z,6.30
2023-05-07T11:53:02.705Z,6.00
2023-05-07T11:54:38.863Z,5.83
2023-05-07T11:56:13.314Z,6.60
2023-05-07T11:57:46.950Z,6.00
2023-05-07T11:59:20.516Z,6.07
2023-05-07T12:00:54.511Z,5.80
2023-05-07T12:02:29.258Z,5.57
2023-05-07T12:04:06.356Z,6.17
2023-05-07T12:05:42.808Z,5.73
2023-05-07T12:07:16.883Z,7.07
2023-05-07T12:08:51.318Z,5.63
2023-05-07T12:10:23.458Z,6.23
2023-05-07T12:11:57.202Z,5.70
2023-05-07T12:13:30.321Z,6.03
2023-05-07T12:15:03.455Z,5.83
2023-05-07T12:16:36.703Z,5.70
2023-05-07T12:18:09.389Z,5.63
2023-05-07T12:19:44.868Z,5.80
2023-05-07T12:21:18.652Z,6.97
2023-05-07T12:22:53.257Z,7.40
2023-05-07T12:24:28.037Z,7.33
2023-05-07T12:26:02.475Z,7.50
2023-05-07T12:27:39.924Z,7.30
2023-05-07T12:29:13.077Z,7.53
2023-05-07T12:30:47.590Z,7.20
2023-05-07T12:32:22.201Z,6.67
2023-05-07T12:33:55.617Z,7.13
2023-05-07T12:35:29.623Z,7.03
2023-05-07T12:37:04.701Z,6.60
2023-05-07T12:38:39.125Z,6.20
2023-05-07T12:40:14.401Z,7.90
2023-05-07T12:41:57.246Z,7.17
2023-05-07T12:43:31.462Z,6.53
2023-05-07T12:45:11.057Z,6.57
2023-05-07T12:46:44.706Z,7.10
2023-05-07T12:48:17.881Z,6.20
2023-05-07T12:49:51.049Z,6.17
2023-05-07T12:51:24.734Z,6.67
2023-05-07T12:52:56.908Z,5.97
2023-05-07T12:54:31.150Z,6.70
2023-05-07T12:56:08.300Z,7.20
2023-05-07T12:57:41.896Z,6.60
2023-05-07T12:59:14.980Z,6.73
2023-05-07T13:00:50.933Z,6.90
2023-05-07T13:02:34.805Z,7.07
2023-05-07T13:04:08.090Z,6.77
2023-05-07T13:05:41.945Z,6.70
2023-05-07T13:07:15.003Z,6.70
2023-05-07T13:08:48.120Z,6.93
2023-05-07T13:10:20.204Z,6.70
2023-05-07T13:11:54.826Z,6.43
2023-05-07T13:13:30.110Z,5.93
2023-05-07T13:15:05.288Z,6.20
2023-05-07T13:16:38.861Z,5.83
2023-05-07T13:18:12.593Z,5.93
2023-05-07T13:19:45.830Z,6.20
2023-05-07T13:21:18.862Z,6.23
2023-05-07T13:22:51.926Z,6.17
2023-05-07T13:24:25.006Z,6.03
2023-05-07T13:25:58.462Z,6.20
2023-05-07T13:27:32.899Z,5.63
2023-05-07T13:29:06.133Z,5.67
2023-05-07T13:30:39.230Z,5.43
2023-05-07T13:32:12.418Z,5.60
2023-05-07T13:33:45.742Z,5.73
2023-05-07T13:35:19.069Z,5.63
2023-05-07T13:36:52.275Z,5.77
2023-05-07T13:38:25.400Z,5.73
2023-05-07T13:39:58.515Z,5.17
2023-05-07T13:41:31.816Z,6.00
2023-05-07T13:43:08.945Z,5.57
2023-05-07T13:44:42.015Z,5.57
2023-05-07T13:46:15.152Z,5.90
2023-05-07T13:47:50.475Z,6.23
2023-05-07T13:49:23.580Z,5.30
2023-05-07T13:50:56.794Z,5.90
2023-05-07T13:52:29.854Z,5.50
2023-05-07T13:54:02.938Z,5.53
2023-05-07T13:55:36.136Z,5.37
2023-05-07T13:57:09.636Z,5.63
2023-05-07T13:58:56.193Z,5.40
2023-05-07T14:00:32.379Z,5.20
2023-05-07T14:02:05.673Z,5.50
2023-05-07T14:03:40.687Z,5.10
2023-05-07T14:05:14.564Z,5.47
2023-05-07T14:06:47.868Z,4.87
2023-05-07T14:08:21.781Z,5.13
2023-05-07T14:09:54.861Z,5.13
2023-05-07T14:11:27.976Z,4.97
2023-05-07T14:13:01.099Z,4.50
2023-05-07T14:14:35.586Z,4.73
2023-05-07T14:16:07.822Z,4.47
2023-05-07T14:17:41.044Z,4.50
2023-05-07T14:19:14.362Z,4.17
2023-05-07T14:20:49.660Z,3.90
2023-05-07T14:22:23.470Z,4.23
2023-05-07T14:23:57.551Z,5.30
2023-05-07T14:25:30.682Z,5.43
2023-05-07T14:27:03.762Z,4.33
2023-05-07T14:28:36.851Z,4.50
2023-05-07T14:30:12.338Z,3.83
2023-05-07T14:31:45.638Z,3.40
2023-05-07T14:33:19.465Z,3.70
2023-05-07T14:34:52.693Z,3.73
2023-05-07T14:36:27.169Z,3.77
2023-05-07T14:38:01.142Z,3.37
2023-05-07T14:39:34.256Z,3.67
2023-05-07T14:41:07.427Z,3.70
2023-05-07T14:42:40.529Z,3.67
2023-05-07T14:44:13.748Z,3.67
2023-05-07T14:45:48.365Z,4.03
2023-05-07T14:47:21.447Z,3.87
2023-05-07T14:48:55.176Z,4.60
2023-05-07T14:50:28.501Z,3.53
2023-05-07T14:52:02.024Z,4.00
2023-05-07T14:53:35.083Z,3.70
2023-05-07T14:55:08.928Z,3.60
2023-05-07T14:56:42.824Z,3.80
2023-05-07T14:58:16.053Z,3.80
2023-05-07T14:59:49.249Z,4.00
2023-05-07T15:01:23.937Z,4.30
2023-05-07T15:03:04.295Z,4.07
2023-05-07T15:04:37.511Z,4.13
2023-05-07T15:06:10.612Z,4.57
2023-05-07T15:07:44.639Z,4.03
2023-05-07T15:09:18.690Z,4.37
2023-05-07T15:10:51.861Z,4.60
2023-05-07T15:12:25.090Z,4.40
2023-05-07T15:13:58.389Z,4.70
2023-05-07T15:15:31.531Z,4.80
2023-05-07T15:17:06.202Z,5.23
2023-05-07T15:18:39.279Z,4.93
2023-05-07T15:20:12.637Z,4.70
2023-05-07T15:21:45.805Z,5.30
2023-05-07T15:23:19.022Z,5.07
2023-05-07T15:24:56.097Z,5.70
2023-05-07T15:26:29.231Z,5.20
2023-05-07T15:28:02.377Z,6.03
2023-05-07T15:29:35.494Z,6.00
2023-05-07T15:31:10.123Z,5.13
2023-05-07T15:32:44.715Z,5.73
2023-05-07T15:34:17.835Z,5.73
2023-05-07T15:35:50.991Z,5.87
2023-05-07T15:37:24.092Z,5.10
2023-05-07T15:38:57.294Z,5.53
2023-05-07T15:40:30.456Z,5.30
2023-05-07T15:42:03.644Z,5.33
2023-05-07T15:43:45.229Z,5.27
2023-05-07T15:45:18.340Z,5.40
2023-05-07T15:46:51.449Z,5.47
2023-05-07T15:48:26.233Z,5.20
2023-05-07T15:49:59.496Z,5.30
2023-05-07T15:51:32.889Z,4.70
2023-05-07T15:53:06.443Z,5.20
2023-05-07T15:54:39.575Z,5.10
2023-05-07T15:56:13.072Z,5.90
2023-05-07T15:57:46.108Z,5.67
2023-05-07T15:59:19.279Z,5.50
2023-05-07T16:00:51.954Z,5.67
2023-05-07T16:02:25.169Z,5.63
2023-05-07T16:04:00.073Z,5.20
2023-05-07T16:05:33.221Z,6.30
2023-05-07T16:07:06.498Z,5.90
2023-05-07T16:08:40.414Z,6.13
2023-05-07T16:10:13.561Z,5.80
2023-05-07T16:11:46.968Z,5.93
2023-05-07T16:13:20.501Z,5.60
2023-05-07T16:14:53.670Z,5.70
2023-05-07T16:16:29.898Z,5.70
2023-05-07T16:18:03.211Z,5.53
2023-05-07T16:19:37.721Z,6.03
2023-05-07T16:21:09.807Z,5.67
2023-05-07T16:22:42.946Z,5.77
2023-05-07T16:24:16.628Z,6.00
2023-05-07T16:25:50.627Z,6.13
2023-05-07T16:27:23.723Z,5.90
2023-05-07T16:28:56.780Z,6.30
2023-05-07T16:30:29.856Z,6.27
2023-05-07T16:32:03.257Z,6.50
2023-05-07T16:33:36.481Z,6.57
2023-05-07T16:35:11.850Z,6.60
2023-05-07T16:36:45.422Z,6.33
2023-05-07T16:38:18.546Z,5.80
2023-05-07T16:39:51.607Z,6.70
2023-05-07T16:41:24.760Z,6.40
2023-05-07T16:42:57.868Z,6.63
2023-05-07T16:44:30.946Z,6.97
2023-05-07T16:46:04.145Z,6.33
2023-05-07T16:47:37.344Z,6.57
2023-05-07T16:49:11.019Z,6.10
2023-05-07T16:50:45.539Z,6.00
2023-05-07T16:52:18.647Z,8.57
2023-05-07T16:53:52.504Z,6.67
2023-05-07T16:55:25.873Z,7.20
2023-05-07T16:56:59.686Z,6.20
2023-05-07T16:58:33.442Z,6.20
2023-05-07T17:00:08.093Z,5.90
2023-05-07T17:01:42.732Z,6.23
2023-05-07T17:03:16.210Z,5.77
2023-05-07T17:04:49.428Z,6.17
2023-05-07T17:06:23.846Z,5.67
2023-05-07T17:07:57.365Z,5.37
2023-05-07T17:09:30.748Z,5.80
2023-05-07T17:11:03.848Z,5.33
2023-05-07T17:12:37.695Z,5.57
2023-05-07T17:14:11.305Z,6.03
2023-05-07T17:15:46.501Z,5.67
2023-05-07T17:17:19.832Z,5.87
2023-05-07T17:18:52.963Z,5.60
2023-05-07T17:20:27.202Z,5.83
2023-05-07T17:22:01.687Z,5.27
2023-05-07T17:23:34.785Z,5.80
2023-05-07T17:25:08.384Z,6.43
2023-05-07T17:26:43.030Z,6.20
2023-05-07T17:28:16.487Z,6.30
2023-05-07T17:29:49.606Z,6.07
2023-05-07T17:31:22.803Z,5.90
2023-05-07T17:33:03.825Z,6.17
2023-05-07T17:34:42.634Z,6.63
2023-05-07T17:36:15.740Z,5.93
2023-05-07T17:37:52.549Z,6.17
2023-05-07T17:39:26.024Z,6.40
2023-05-07T17:40:59.978Z,6.83
2023-05-07T17:42:33.307Z,6.50
2023-05-07T17:44:06.523Z,6.70
2023-05-07T17:45:39.846Z,7.00
2023-05-07T17:47:14.225Z,7.10
2023-05-07T17:48:47.572Z,7.10
2023-05-07T17:50:21.676Z,6.77
2023-05-07T17:51:55.737Z,7.43
2023-05-07T17:53:30.632Z,6.37
2023-05-07T17:55:04.384Z,7.50
2023-05-07T17:56:38.889Z,7.00
2023-05-07T17:58:12.680Z,6.77
2023-05-07T17:59:45.737Z,7.10
2023-05-07T18:01:18.861Z,6.87
2023-05-07T18:02:53.097Z,7.80
2023-05-07T18:04:28.137Z,6.83
2023-05-07T18:06:01.258Z,7.30
2023-05-07T18:07:34.478Z,7.20
2023-05-07T18:09:08.956Z,6.80
2023-05-07T18:10:42.340Z,7.10
2023-05-07T18:12:14.430Z,7.27
2023-05-07T18:13:47.521Z,7.43
2023-05-07T18:15:20.848Z,7.10
2023-05-07T18:16:54.164Z,7.93
2023-05-07T18:18:30.642Z,7.40
2023-05-07T18:20:04.086Z,7.03
2023-05-07T18:21:37.192Z,7.80
2023-05-07T18:23:10.805Z,7.60
2023-05-07T18:24:45.266Z,7.10
2023-05-07T18:26:18.807Z,7.47
2023-05-07T18:27:52.033Z,7.53
2023-05-07T18:29:25.262Z,7.43
2023-05-07T18:30:58.320Z,7.37
2023-05-07T18:32:31.507Z,7.70
2023-05-07T18:34:06.154Z,7.57
2023-05-07T18:35:39.268Z,7.53
2023-05-07T18:37:12.356Z,8.07
2023-05-07T18:38:45.537Z,7.77
2023-05-07T18:40:21.090Z,8.17
2023-05-07T18:41:54.446Z,7.87
2023-05-07T18:43:27.491Z,7.77
2023-05-07T18:45:00.741Z,7.97
2023-05-07T18:46:33.899Z,8.27
2023-05-07T18:48:07.825Z,8.13
2023-05-07T18:49:40.987Z,7.90
2023-05-07T18:51:14.146Z,7.60
2023-05-07T18:52:47.463Z,8.00
2023-05-07T18:54:20.561Z,8.23
2023-05-07T18:55:55.500Z,8.10
2023-05-07T18:57:29.550Z,7.77
2023-05-07T18:59:02.781Z,8.37
2023-05-07T19:00:35.873Z,8.10
2023-05-07T19:02:09.006Z,8.30
2023-05-07T19:03:42.093Z,8.13
2023-05-07T19:05:15.186Z,8.37
2023-05-07T19:06:48.246Z,8.17
2023-05-07T19:08:21.357Z,8.70
2023-05-07T19:10:04.325Z,8.70
2023-05-07T19:11:48.913Z,8.53
2023-05-07T19:13:23.428Z,8.50
2023-05-07T19:14:56.630Z,8.30
2023-05-07T19:16:29.818Z,8.33
2023-05-07T19:18:03.068Z,8.87
2023-05-07T19:19:36.189Z,8.37
2023-05-07T19:21:09.533Z,8.53
2023-05-07T19:22:43.019Z,8.50
2023-05-07T19:24:16.142Z,8.63
2023-05-07T19:25:49.346Z,8.67
2023-05-07T19:27:23.776Z,9.57
2023-05-07T19:29:12.201Z,8.40
2023-05-07T19:30:49.818Z,8.90
2023-05-07T19:32:22.967Z,8.77
2023-05-07T19:33:57.411Z,9.23
2023-05-07T19:35:31.352Z,8.73
2023-05-07T19:37:05.536Z,9.17
2023-05-07T19:38:38.607Z,8.47
2023-05-07T19:40:12.796Z,8.80
2023-05-07T19:41:45.864Z,9.20
2023-05-07T19:43:20.420Z,9.10
2023-05-07T19:44:53.474Z,9.13
2023-05-07T19:46:26.977Z,8.97
2023-05-07T19:48:00.174Z,8.77
2023-05-07T19:49:33.382Z,9.23
2023-05-07T19:51:06.398Z,9.10
2023-05-07T19:52:39.508Z,9.33
2023-05-07T19:54:12.541Z,9.23
2023-05-07T19:55:45.629Z,9.73
2023-05-07T19:57:18.731Z,9.60
2023-05-07T19:58:53.694Z,9.43
2023-05-07T20:00:31.474Z,9.50
2023-05-07T20:02:04.679Z,8.87
2023-05-07T20:03:37.985Z,9.13
2023-05-07T20:05:13.823Z,8.73
2023-05-07T20:06:46.871Z,8.87
2023-05-07T20:08:20.022Z,8.43
2023-05-07T20:09:53.110Z,8.70
2023-05-07T20:11:26.247Z,8.57
2023-05-07T20:12:59.354Z,8.87
2023-05-07T20:14:33.878Z,9.07
2023-05-07T20:16:07.038Z,8.97
2023-05-07T20:17:40.226Z,8.60
2023-05-07T20:19:13.260Z,9.70
2023-05-07T20:20:46.408Z,9.07
2023-05-07T20:22:19.484Z,8.77
2023-05-07T20:23:52.925Z,8.97
2023-05-07T20:25:26.096Z,9.37
2023-05-07T20:26:59.214Z,8.63
2023-05-07T20:28:32.303Z,9.13
2023-05-07T20:30:08.104Z,8.73
2023-05-07T20:31:41.450Z,8.77
2023-05-07T20:33:14.773Z,8.57
2023-05-07T20:34:48.029Z,8.17
2023-05-07T20:36:21.064Z,8.73
2023-05-07T20:37:54.147Z,8.07
2023-05-07T20:39:27.246Z,8.23
2023-05-07T20:41:00.418Z,7.67
2023-05-07T20:42:32.718Z,8.40
2023-05-07T20:44:06.217Z,8.00
2023-05-07T20:45:40.674Z,8.50
2023-05-07T20:47:13.829Z,7.80
2023-05-07T20:48:47.140Z,7.43
2023-05-07T20:50:20.246Z,8.13
2023-05-07T20:51:53.286Z,7.93
2023-05-07T20:53:26.749Z,7.97